createdAt,value
2019-01-04T00:00:01.833Z,1032.99
2019-01-04T00:01:01.837Z,1032.94
2019-01-04T00:02:01.823Z,1032.92
2019-01-04T00:03:01.798Z,1032.95
2019-01-04T00:04:01.835Z,1032.96
2019-01-04T00:05:01.788Z,1032.95
2019-01-04T00:06:01.766Z,1033.00
2019-01-04T00:07:01.897Z,1033.02
2019-01-04T00:08:01.741Z,1033.00
2019-01-04T00:09:01.805Z,1032.97
2019-01-04T00:10:01.890Z,1032.96
2019-01-04T00:11:01.730Z,1032.95
2019-01-04T00:12:01.710Z,1032.89
2019-01-04T00:13:01.823Z,1032.91
2019-01-04T00:14:01.711Z,1032.93
2019-01-04T00:15:01.675Z,1033.00
2019-01-04T00:16:01.670Z,1032.98
2019-01-04T00:17:01.669Z,1033.02
2019-01-04T00:18:01.637Z,1032.94
2019-01-04T00:19:01.646Z,1033.00
2019-01-04T00:20:01.653Z,1032.98
2019-01-04T00:21:01.600Z,1032.98
2019-01-04T00:22:01.606Z,1032.97
2019-01-04T00:23:01.587Z,1032.94
2019-01-04T00:24:01.690Z,1032.97
2019-01-04T00:25:01.556Z,1032.93
2019-01-04T00:26:01.547Z,1032.95
2019-01-04T00:27:01.555Z,1032.97
2019-01-04T00:28:01.566Z,1032.93
2019-01-04T00:29:01.566Z,1032.96
2019-01-04T00:30:01.524Z,1032.90
2019-01-04T00:31:01.497Z,1032.92
2019-01-04T00:32:01.484Z,1032.88
2019-01-04T00:33:01.483Z,1032.87
2019-01-04T00:34:01.464Z,1032.87
2019-01-04T00:35:01.477Z,1032.91
2019-01-04T00:36:01.463Z,1032.91
2019-01-04T00:37:01.442Z,1032.89
2019-01-04T00:38:01.420Z,1032.92
2019-01-04T00:39:01.426Z,1032.93
2019-01-04T00:40:01.417Z,1032.93
2019-01-04T00:41:01.393Z,1032.93
2019-01-04T00:42:01.386Z,1032.95
2019-01-04T00:43:01.437Z,1032.92
2019-01-04T00:44:01.358Z,1033.02
2019-01-04T00:45:01.369Z,1032.97
2019-01-04T00:46:01.332Z,1032.98
2019-01-04T00:47:01.334Z,1032.99
2019-01-04T00:48:01.307Z,1032.90
2019-01-04T00:49:01.293Z,1032.88
2019-01-04T00:50:01.319Z,1032.91
2019-01-04T00:51:01.294Z,1032.89
2019-01-04T00:52:01.286Z,1032.92
2019-01-04T00:53:01.262Z,1032.95
2019-01-04T00:54:01.244Z,1032.91
2019-01-04T00:55:01.262Z,1032.94
2019-01-04T00:56:01.347Z,1032.96
2019-01-04T00:57:01.207Z,1032.95
2019-01-04T00:58:01.196Z,1032.94
2019-01-04T00:59:01.185Z,1032.91
2019-01-04T01:00:01.180Z,1032.88
2019-01-04T01:01:01.164Z,1032.90
2019-01-04T01:02:01.255Z,1032.83
2019-01-04T01:03:01.177Z,1032.85
2019-01-04T01:04:01.131Z,1032.82
2019-01-04T01:05:01.125Z,1032.86
2019-01-04T01:06:01.112Z,1032.86
2019-01-04T01:07:01.231Z,1032.88
2019-01-04T01:08:01.085Z,1032.87
2019-01-04T01:09:01.080Z,1032.87
2019-01-04T01:10:01.068Z,1032.84
2019-01-04T01:11:01.056Z,1032.82
2019-01-04T01:12:01.058Z,1032.74
2019-01-04T01:13:01.032Z,1032.78
2019-01-04T01:14:01.038Z,1032.80
2019-01-04T01:15:01.055Z,1032.78
2019-01-04T01:16:00.999Z,1032.84
2019-01-04T01:17:01.013Z,1032.87
2019-01-04T01:18:00.972Z,1032.87
2019-01-04T01:19:00.965Z,1032.82
2019-01-04T01:20:00.991Z,1032.83
2019-01-04T01:21:00.958Z,1032.76
2019-01-04T01:22:00.975Z,1032.81
2019-01-04T01:23:00.951Z,1032.82
2019-01-04T01:24:00.978Z,1032.83
2019-01-04T01:25:08.479Z,1032.78
2019-01-04T01:26:08.425Z,1032.77
2019-01-04T01:27:10.497Z,1032.84
2019-01-04T01:28:08.451Z,1032.82
2019-01-04T01:29:08.423Z,1032.79
2019-01-04T01:30:08.398Z,1032.79
2019-01-04T01:31:08.374Z,1032.78
2019-01-04T01:32:00.855Z,1032.77
2019-01-04T01:33:00.826Z,1032.79
2019-01-04T01:34:00.799Z,1032.86
2019-01-04T01:35:00.791Z,1032.95
2019-01-04T01:36:00.786Z,1032.95
2019-01-04T01:37:00.771Z,1032.97
2019-01-04T01:38:00.806Z,1032.98
2019-01-04T01:39:00.754Z,1032.90
2019-01-04T01:40:00.734Z,1032.97
2019-01-04T01:41:00.764Z,1032.91
2019-01-04T01:42:00.742Z,1032.91
2019-01-04T01:43:00.809Z,1032.87
2019-01-04T01:44:00.700Z,1032.92
2019-01-04T01:45:00.688Z,1032.88
2019-01-04T01:46:00.712Z,1032.94
2019-01-04T01:47:00.657Z,1032.89
2019-01-04T01:48:00.653Z,1032.83
2019-01-04T01:49:00.756Z,1032.82
2019-01-04T01:50:00.632Z,1032.73
2019-01-04T01:51:00.620Z,1032.73
2019-01-04T01:52:00.684Z,1032.76
2019-01-04T01:53:00.715Z,1032.78
2019-01-04T01:54:00.735Z,1032.84
2019-01-04T01:55:00.583Z,1032.84
2019-01-04T01:56:00.570Z,1032.88
2019-01-04T01:57:00.551Z,1032.88
2019-01-04T01:58:00.543Z,1032.96
2019-01-04T01:59:00.545Z,1032.97
2019-01-04T02:00:00.516Z,1032.99
2019-01-04T02:01:00.522Z,1033.00
2019-01-04T02:02:00.497Z,1033.01
2019-01-04T02:03:00.488Z,1033.01
2019-01-04T02:04:00.533Z,1033.07
2019-01-04T02:05:00.463Z,1033.09
2019-01-04T02:06:00.454Z,1033.09
2019-01-04T02:07:00.451Z,1033.07
2019-01-04T02:08:00.429Z,1033.01
2019-01-04T02:09:00.551Z,1032.97
2019-01-04T02:10:00.417Z,1032.97
2019-01-04T02:11:00.404Z,1032.99
2019-01-04T02:12:00.402Z,1032.99
2019-01-04T02:13:00.430Z,1033.01
2019-01-04T02:14:00.368Z,1033.04
2019-01-04T02:15:00.358Z,1033.06
2019-01-04T02:16:00.347Z,1033.12
2019-01-04T02:17:00.343Z,1033.14
2019-01-04T02:18:00.338Z,1033.14
2019-01-04T02:19:00.335Z,1033.17
2019-01-04T02:20:00.302Z,1033.19
2019-01-04T02:21:00.297Z,1033.26
2019-01-04T02:22:00.282Z,1033.24
2019-01-04T02:23:00.297Z,1033.22
2019-01-04T02:24:00.305Z,1033.26
2019-01-04T02:25:00.263Z,1033.20
2019-01-04T02:26:00.255Z,1033.21
2019-01-04T02:27:00.220Z,1033.22
2019-01-04T02:28:00.245Z,1033.23
2019-01-04T02:29:00.207Z,1033.22
2019-01-04T02:30:00.218Z,1033.17
2019-01-04T02:31:00.192Z,1033.20
2019-01-04T02:32:00.183Z,1033.20
2019-01-04T02:33:00.174Z,1033.18
2019-01-04T02:34:00.163Z,1033.24
2019-01-04T02:35:00.192Z,1033.19
2019-01-04T02:36:00.127Z,1033.20
2019-01-04T02:37:00.132Z,1033.17
2019-01-04T02:38:00.164Z,1033.12
2019-01-04T02:39:00.165Z,1033.16
2019-01-04T02:40:00.130Z,1033.17
2019-01-04T02:41:00.068Z,1033.14
2019-01-04T02:42:00.056Z,1033.12
2019-01-04T02:43:00.044Z,1033.12
2019-01-04T02:44:00.074Z,1033.14
2019-01-04T02:45:00.050Z,1033.11
2019-01-04T02:46:00.028Z,1033.18
2019-01-04T02:47:00.006Z,1033.13
2019-01-04T02:47:59.998Z,1033.16
2019-01-04T02:49:00.014Z,1033.13
2019-01-04T02:49:59.967Z,1033.13
2019-01-04T02:50:59.986Z,1033.11
2019-01-04T02:51:59.962Z,1033.11
2019-01-04T02:52:59.944Z,1033.16
2019-01-04T02:53:59.966Z,1033.14
2019-01-04T02:54:59.969Z,1033.02
2019-01-04T02:55:59.920Z,1032.95
2019-01-04T02:56:59.897Z,1032.98
2019-01-04T02:57:59.929Z,1033.00
2019-01-04T02:58:59.901Z,1033.10
2019-01-04T02:59:59.855Z,1033.10
2019-01-04T03:00:59.846Z,1033.06
2019-01-04T03:01:59.852Z,1033.02
2019-01-04T03:02:59.824Z,1033.05
2019-01-04T03:03:59.818Z,1033.05
2019-01-04T03:04:59.827Z,1033.10
2019-01-04T03:05:59.841Z,1033.18
2019-01-04T03:06:59.781Z,1033.13
2019-01-04T03:07:59.782Z,1033.12
2019-01-04T03:08:59.780Z,1033.06
2019-01-04T03:09:59.851Z,1033.12
2019-01-04T03:10:59.778Z,1033.14
2019-01-04T03:11:59.772Z,1033.09
2019-01-04T03:12:59.726Z,1033.02
2019-01-04T03:13:59.777Z,1033.01
2019-01-04T03:15:00.210Z,1033.01
2019-01-04T03:15:59.844Z,1033.01
2019-01-04T03:16:59.683Z,1032.99
2019-01-04T03:17:59.744Z,1032.91
2019-01-04T03:18:59.654Z,1032.87
2019-01-04T03:19:59.668Z,1032.87
2019-01-04T03:20:59.733Z,1032.89
2019-01-04T03:21:59.679Z,1032.94
2019-01-04T03:22:59.657Z,1033.02
2019-01-04T03:23:59.602Z,1032.97
2019-01-04T03:24:59.632Z,1032.92
2019-01-04T03:25:59.597Z,1032.90
2019-01-04T03:26:59.571Z,1032.90
2019-01-04T03:27:59.594Z,1032.89
2019-01-04T03:28:59.544Z,1032.94
2019-01-04T03:29:59.532Z,1033.01
2019-01-04T03:30:59.570Z,1032.94
2019-01-04T03:31:59.588Z,1032.97
2019-01-04T03:32:59.499Z,1033.00
2019-01-04T03:33:59.494Z,1032.91
2019-01-04T03:34:59.509Z,1032.89
2019-01-04T03:35:59.516Z,1032.92
2019-01-04T03:36:59.459Z,1032.91
2019-01-04T03:37:59.513Z,1032.91
2019-01-04T03:38:59.457Z,1032.84
2019-01-04T03:39:59.426Z,1032.82
2019-01-04T03:40:59.484Z,1032.88
2019-01-04T03:41:59.414Z,1032.83
2019-01-04T03:42:59.483Z,1032.81
2019-01-04T03:43:59.428Z,1032.82
2019-01-04T03:44:59.461Z,1032.84
2019-01-04T03:45:59.385Z,1032.83
2019-01-04T03:46:59.464Z,1032.79
2019-01-04T03:47:59.405Z,1032.83
2019-01-04T03:48:59.466Z,1032.80
2019-01-04T03:49:59.352Z,1032.77
2019-01-04T03:50:59.311Z,1032.84
2019-01-04T03:51:59.409Z,1032.84
2019-01-04T03:52:59.299Z,1032.79
2019-01-04T03:53:59.318Z,1032.85
2019-01-04T03:54:59.287Z,1032.83
2019-01-04T03:55:59.269Z,1032.85
2019-01-04T03:56:59.320Z,1032.85
2019-01-04T03:57:59.240Z,1032.86
2019-01-04T03:58:59.239Z,1032.88
2019-01-04T03:59:59.229Z,1032.86
2019-01-04T04:00:59.195Z,1032.87
2019-01-04T04:01:59.263Z,1032.86
2019-01-04T04:02:59.175Z,1032.83
2019-01-04T04:03:59.162Z,1032.87
2019-01-04T04:04:59.159Z,1032.87
2019-01-04T04:05:59.169Z,1032.84
2019-01-04T04:06:59.164Z,1032.86
2019-01-04T04:07:59.142Z,1032.89
2019-01-04T04:08:59.110Z,1032.98
2019-01-04T04:09:59.120Z,1032.97
2019-01-04T04:10:59.089Z,1032.96
2019-01-04T04:11:59.133Z,1032.99
2019-01-04T04:12:59.067Z,1032.99
2019-01-04T04:13:59.067Z,1032.98
2019-01-04T04:14:59.056Z,1032.99
2019-01-04T04:15:59.030Z,1032.93
2019-01-04T04:16:59.048Z,1032.95
2019-01-04T04:17:59.013Z,1032.94
2019-01-04T04:18:59.055Z,1032.95
2019-01-04T04:19:58.990Z,1032.89
2019-01-04T04:20:58.976Z,1032.90
2019-01-04T04:21:58.980Z,1032.89
2019-01-04T04:22:58.974Z,1032.89
2019-01-04T04:23:58.976Z,1032.83
2019-01-04T04:24:58.936Z,1032.82
2019-01-04T04:25:58.929Z,1032.77
2019-01-04T04:26:58.941Z,1032.78
2019-01-04T04:27:58.943Z,1032.76
2019-01-04T04:28:58.894Z,1032.78
2019-01-04T04:29:58.880Z,1032.80
2019-01-04T04:30:58.967Z,1032.78
2019-01-04T04:31:58.864Z,1032.75
2019-01-04T04:32:58.862Z,1032.83
2019-01-04T04:33:58.887Z,1032.82
2019-01-04T04:34:58.844Z,1032.85
2019-01-04T04:35:58.815Z,1032.84
2019-01-04T04:36:58.805Z,1032.85
2019-01-04T04:37:58.836Z,1032.84
2019-01-04T04:38:58.779Z,1032.81
2019-01-04T04:39:58.964Z,1032.82
2019-01-04T04:40:58.795Z,1032.79
2019-01-04T04:41:58.803Z,1032.72
2019-01-04T04:42:58.824Z,1032.67
2019-01-04T04:43:58.824Z,1032.71
2019-01-04T04:44:58.790Z,1032.72
2019-01-04T04:45:58.716Z,1032.71
2019-01-04T04:46:58.743Z,1032.76
2019-01-04T04:47:58.773Z,1032.78
2019-01-04T04:49:08.713Z,1032.76
2019-01-04T04:49:58.684Z,1032.79
2019-01-04T04:50:58.653Z,1032.77
2019-01-04T04:51:58.649Z,1032.81
2019-01-04T04:52:58.660Z,1032.85
2019-01-04T04:53:58.678Z,1032.85
2019-01-04T04:54:58.614Z,1032.90
2019-01-04T04:55:58.646Z,1032.89
2019-01-04T04:56:58.616Z,1032.86
2019-01-04T04:57:58.606Z,1032.87
2019-01-04T04:58:58.594Z,1032.92
2019-01-04T04:59:58.576Z,1032.90
2019-01-04T05:00:58.553Z,1032.86
2019-01-04T05:01:58.562Z,1032.86
2019-01-04T05:02:58.556Z,1032.87
2019-01-04T05:04:08.192Z,1032.89
2019-01-04T05:04:58.547Z,1032.84
2019-01-04T05:05:58.501Z,1032.83
2019-01-04T05:06:58.494Z,1032.84
2019-01-04T05:07:58.488Z,1032.86
2019-01-04T05:08:58.491Z,1032.87
2019-01-04T05:09:58.479Z,1032.90
2019-01-04T05:10:58.462Z,1032.90
2019-01-04T05:11:58.436Z,1032.88
2019-01-04T05:12:58.425Z,1032.87
2019-01-04T05:13:58.419Z,1032.79
2019-01-04T05:14:58.447Z,1032.86
2019-01-04T05:15:58.415Z,1032.85
2019-01-04T05:16:58.382Z,1032.83
2019-01-04T05:17:58.375Z,1032.86
2019-01-04T05:18:58.364Z,1032.84
2019-01-04T05:19:58.367Z,1032.77
2019-01-04T05:20:58.367Z,1032.78
2019-01-04T05:21:58.332Z,1032.74
2019-01-04T05:22:58.377Z,1032.71
2019-01-04T05:23:58.357Z,1032.69
2019-01-04T05:24:58.410Z,1032.72
2019-01-04T05:25:58.287Z,1032.70
2019-01-04T05:26:58.276Z,1032.63
2019-01-04T05:27:58.281Z,1032.66
2019-01-04T05:28:58.260Z,1032.67
2019-01-04T05:29:58.297Z,1032.63
2019-01-04T05:30:58.233Z,1032.58
2019-01-04T05:31:58.239Z,1032.55
2019-01-04T05:32:58.229Z,1032.62
2019-01-04T05:33:58.220Z,1032.60
2019-01-04T05:34:58.219Z,1032.60
2019-01-04T05:35:58.239Z,1032.57
2019-01-04T05:36:58.168Z,1032.57
2019-01-04T05:37:58.163Z,1032.59
2019-01-04T05:38:58.157Z,1032.58
2019-01-04T05:39:58.156Z,1032.66
2019-01-04T05:40:58.167Z,1032.78
2019-01-04T05:41:58.120Z,1032.73
2019-01-04T05:42:58.158Z,1032.78
2019-01-04T05:43:58.117Z,1032.74
2019-01-04T05:44:58.091Z,1032.75
2019-01-04T05:45:58.095Z,1032.77
2019-01-04T05:46:58.101Z,1032.72
2019-01-04T05:47:58.060Z,1032.70
2019-01-04T05:48:58.076Z,1032.72
2019-01-04T05:49:58.055Z,1032.65
2019-01-04T05:50:58.046Z,1032.63
2019-01-04T05:51:58.016Z,1032.61
2019-01-04T05:52:58.006Z,1032.61
2019-01-04T05:53:57.996Z,1032.67
2019-01-04T05:54:57.986Z,1032.67
2019-01-04T05:55:57.993Z,1032.65
2019-01-04T05:56:58.063Z,1032.65
2019-01-04T05:57:57.952Z,1032.67
2019-01-04T05:58:57.938Z,1032.60
2019-01-04T05:59:57.927Z,1032.55
2019-01-04T06:00:57.933Z,1032.68
2019-01-04T06:01:57.927Z,1032.65
2019-01-04T06:02:57.893Z,1032.67
2019-01-04T06:03:57.950Z,1032.66
2019-01-04T06:04:57.898Z,1032.67
2019-01-04T06:05:57.882Z,1032.64
2019-01-04T06:06:57.870Z,1032.68
2019-01-04T06:07:57.841Z,1032.77
2019-01-04T06:08:57.855Z,1032.70
2019-01-04T06:09:57.822Z,1032.68
2019-01-04T06:10:57.833Z,1032.72
2019-01-04T06:11:57.806Z,1032.73
2019-01-04T06:12:57.810Z,1032.73
2019-01-04T06:13:57.780Z,1032.70
2019-01-04T06:14:57.772Z,1032.71
2019-01-04T06:15:57.770Z,1032.68
2019-01-04T06:16:57.773Z,1032.60
2019-01-04T06:17:57.749Z,1032.59
2019-01-04T06:18:57.769Z,1032.56
2019-01-04T06:19:57.716Z,1032.62
2019-01-04T06:20:57.750Z,1032.60
2019-01-04T06:21:57.693Z,1032.57
2019-01-04T06:22:57.683Z,1032.56
2019-01-04T06:23:57.667Z,1032.56
2019-01-04T06:24:57.658Z,1032.51
2019-01-04T06:25:57.710Z,1032.46
2019-01-04T06:26:57.639Z,1032.48
2019-01-04T06:27:57.624Z,1032.45
2019-01-04T06:28:57.618Z,1032.44
2019-01-04T06:29:57.648Z,1032.49
2019-01-04T06:30:57.616Z,1032.47
2019-01-04T06:31:57.585Z,1032.46
2019-01-04T06:32:57.570Z,1032.38
2019-01-04T06:33:57.559Z,1032.38
2019-01-04T06:34:57.550Z,1032.43
2019-01-04T06:35:57.539Z,1032.46
2019-01-04T06:36:57.545Z,1032.45
2019-01-04T06:37:57.520Z,1032.51
2019-01-04T06:38:57.499Z,1032.51
2019-01-04T06:39:57.490Z,1032.43
2019-01-04T06:40:57.479Z,1032.47
2019-01-04T06:41:57.490Z,1032.45
2019-01-04T06:42:57.463Z,1032.52
2019-01-04T06:43:57.455Z,1032.50
2019-01-04T06:44:57.434Z,1032.53
2019-01-04T06:45:57.424Z,1032.50
2019-01-04T06:46:57.432Z,1032.49
2019-01-04T06:47:57.399Z,1032.47
2019-01-04T06:48:57.389Z,1032.54
2019-01-04T06:49:57.385Z,1032.57
2019-01-04T06:50:57.374Z,1032.57
2019-01-04T06:51:57.382Z,1032.54
2019-01-04T06:52:57.347Z,1032.46
2019-01-04T06:53:57.334Z,1032.45
2019-01-04T06:54:57.326Z,1032.43
2019-01-04T06:55:57.313Z,1032.40
2019-01-04T06:56:57.325Z,1032.36
2019-01-04T06:57:57.304Z,1032.39
2019-01-04T06:58:57.280Z,1032.36
2019-01-04T06:59:57.268Z,1032.35
2019-01-04T07:00:57.259Z,1032.38
2019-01-04T07:01:57.246Z,1032.34
2019-01-04T07:02:57.254Z,1032.37
2019-01-04T07:03:57.235Z,1032.37
2019-01-04T07:04:57.215Z,1032.32
2019-01-04T07:05:57.210Z,1032.35
2019-01-04T07:06:57.195Z,1032.38
2019-01-04T07:07:57.198Z,1032.41
2019-01-04T07:08:57.171Z,1032.43
2019-01-04T07:09:57.158Z,1032.45
2019-01-04T07:10:57.150Z,1032.47
2019-01-04T07:11:57.183Z,1032.50
2019-01-04T07:12:57.154Z,1032.53
2019-01-04T07:13:57.117Z,1032.59
2019-01-04T07:14:57.117Z,1032.70
2019-01-04T07:15:57.102Z,1032.66
2019-01-04T07:16:57.104Z,1032.61
2019-01-04T07:17:57.094Z,1032.64
2019-01-04T07:18:57.059Z,1032.58
2019-01-04T07:19:57.060Z,1032.61
2019-01-04T07:20:57.073Z,1032.63
2019-01-04T07:21:57.062Z,1032.70
2019-01-04T07:22:57.039Z,1032.73
2019-01-04T07:23:57.013Z,1032.79
2019-01-04T07:24:57.010Z,1032.77
2019-01-04T07:25:56.989Z,1032.77
2019-01-04T07:26:57.001Z,1032.78
2019-01-04T07:27:56.973Z,1032.74
2019-01-04T07:28:56.974Z,1032.74
2019-01-04T07:29:56.981Z,1032.73
2019-01-04T07:30:56.953Z,1032.73
2019-01-04T07:31:56.924Z,1032.69
2019-01-04T07:32:56.907Z,1032.70
2019-01-04T07:33:56.921Z,1032.71
2019-01-04T07:34:56.907Z,1032.72
2019-01-04T07:35:56.883Z,1032.73
2019-01-04T07:36:56.870Z,1032.71
2019-01-04T07:37:56.864Z,1032.66
2019-01-04T07:38:56.869Z,1032.68
2019-01-04T07:39:56.834Z,1032.73
2019-01-04T07:40:56.823Z,1032.77
2019-01-04T07:41:56.808Z,1032.80
2019-01-04T07:42:56.805Z,1032.80
2019-01-04T07:43:56.820Z,1032.80
2019-01-04T07:44:56.815Z,1032.77
2019-01-04T07:45:56.840Z,1032.74
2019-01-04T07:46:56.755Z,1032.78
2019-01-04T07:47:56.744Z,1032.80
2019-01-04T07:48:56.735Z,1032.74
2019-01-04T07:49:56.740Z,1032.75
2019-01-04T07:50:56.709Z,1032.77
2019-01-04T07:51:56.698Z,1032.74
2019-01-04T07:52:56.692Z,1032.72
2019-01-04T07:53:56.678Z,1032.63
2019-01-04T07:54:56.689Z,1032.67
2019-01-04T07:55:56.656Z,1032.71
2019-01-04T07:56:56.649Z,1032.67
2019-01-04T07:57:56.641Z,1032.65
2019-01-04T07:58:56.783Z,1032.67
2019-01-04T07:59:56.711Z,1032.60
2019-01-04T08:00:56.719Z,1032.57
2019-01-04T08:02:05.307Z,1032.55
2019-01-04T08:02:56.657Z,1032.60
2019-01-04T08:03:56.660Z,1032.58
2019-01-04T08:04:56.646Z,1032.53
2019-01-04T08:05:56.707Z,1032.57
2019-01-04T08:06:56.554Z,1032.57
2019-01-04T08:07:56.525Z,1032.61
2019-01-04T08:08:56.545Z,1032.65
2019-01-04T08:09:56.529Z,1032.62
2019-01-04T08:10:56.502Z,1032.69
2019-01-04T08:11:56.519Z,1032.72
2019-01-04T08:12:56.471Z,1032.81
2019-01-04T08:13:56.462Z,1032.83
2019-01-04T08:14:56.450Z,1032.86
2019-01-04T08:15:56.454Z,1032.82
2019-01-04T08:16:56.470Z,1032.78
2019-01-04T08:17:56.425Z,1032.78
2019-01-04T08:18:56.405Z,1032.82
2019-01-04T08:19:56.397Z,1032.77
2019-01-04T08:20:56.404Z,1032.73
2019-01-04T08:21:56.373Z,1032.70
2019-01-04T08:22:56.389Z,1032.73
2019-01-04T08:23:56.360Z,1032.65
2019-01-04T08:24:56.342Z,1032.63
2019-01-04T08:25:56.353Z,1032.68
2019-01-04T08:26:56.325Z,1032.65
2019-01-04T08:27:56.304Z,1032.64
2019-01-04T08:28:56.347Z,1032.62
2019-01-04T08:29:56.286Z,1032.63
2019-01-04T08:30:56.307Z,1032.64
2019-01-04T08:31:56.278Z,1032.63
2019-01-04T08:32:56.264Z,1032.67
2019-01-04T08:33:56.242Z,1032.72
2019-01-04T08:34:56.293Z,1032.73
2019-01-04T08:35:56.701Z,1032.72
2019-01-04T08:36:56.225Z,1032.74
2019-01-04T08:37:56.207Z,1032.74
2019-01-04T08:38:56.191Z,1032.78
2019-01-04T08:39:56.230Z,1032.80
2019-01-04T08:40:56.193Z,1032.80
2019-01-04T08:41:56.157Z,1032.84
2019-01-04T08:42:56.156Z,1032.90
2019-01-04T08:43:56.139Z,1032.86
2019-01-04T08:44:56.125Z,1032.89
2019-01-04T08:45:56.137Z,1032.96
2019-01-04T08:46:56.472Z,1032.93
2019-01-04T08:47:56.106Z,1033.00
2019-01-04T08:48:56.086Z,1032.97
2019-01-04T08:49:56.073Z,1032.97
2019-01-04T08:50:56.093Z,1032.98
2019-01-04T08:51:56.057Z,1032.93
2019-01-04T08:52:56.041Z,1032.95
2019-01-04T08:53:56.081Z,1032.91
2019-01-04T08:54:56.024Z,1032.85
2019-01-04T08:55:56.026Z,1032.88
2019-01-04T08:56:56.025Z,1032.81
2019-01-04T08:57:55.992Z,1032.81
2019-01-04T08:58:55.997Z,1032.76
2019-01-04T08:59:55.970Z,1032.76
2019-01-04T09:00:55.953Z,1032.79
2019-01-04T09:01:55.961Z,1032.82
2019-01-04T09:02:55.931Z,1032.84
2019-01-04T09:03:55.927Z,1032.80
2019-01-04T09:04:55.935Z,1032.82
2019-01-04T09:05:55.905Z,1032.80
2019-01-04T09:06:55.911Z,1032.85
2019-01-04T09:07:55.922Z,1032.80
2019-01-04T09:08:55.871Z,1032.79
2019-01-04T09:09:55.864Z,1032.79
2019-01-04T09:10:55.849Z,1032.77
2019-01-04T09:11:56.586Z,1032.68
2019-01-04T09:12:55.835Z,1032.60
2019-01-04T09:13:55.816Z,1032.62
2019-01-04T09:14:55.822Z,1032.56
2019-01-04T09:15:55.809Z,1032.58
2019-01-04T09:16:55.789Z,1032.61
2019-01-04T09:17:55.826Z,1032.64
2019-01-04T09:18:55.790Z,1032.63
2019-01-04T09:19:55.757Z,1032.60
2019-01-04T09:20:55.746Z,1032.57
2019-01-04T09:21:55.735Z,1032.58
2019-01-04T09:22:55.740Z,1032.55
2019-01-04T09:23:55.719Z,1032.46
2019-01-04T09:24:55.710Z,1032.47
2019-01-04T09:25:55.686Z,1032.47
2019-01-04T09:26:55.682Z,1032.47
2019-01-04T09:27:55.688Z,1032.46
2019-01-04T09:28:55.655Z,1032.44
2019-01-04T09:29:55.645Z,1032.40
2019-01-04T09:30:55.707Z,1032.35
2019-01-04T09:31:55.627Z,1032.34
2019-01-04T09:32:55.645Z,1032.29
2019-01-04T09:33:57.072Z,1032.29
2019-01-04T09:34:55.593Z,1032.32
2019-01-04T09:35:55.775Z,1032.27
2019-01-04T09:36:55.572Z,1032.32
2019-01-04T09:37:55.588Z,1032.33
2019-01-04T09:38:55.563Z,1032.27
2019-01-04T09:39:55.552Z,1032.30
2019-01-04T09:40:55.526Z,1032.30
2019-01-04T09:41:55.518Z,1032.33
2019-01-04T09:42:55.525Z,1032.35
2019-01-04T09:43:55.522Z,1032.36
2019-01-04T09:44:55.486Z,1032.34
2019-01-04T09:45:55.476Z,1032.32
2019-01-04T09:46:55.467Z,1032.30
2019-01-04T09:47:55.453Z,1032.30
2019-01-04T09:48:55.469Z,1032.25
2019-01-04T09:49:55.433Z,1032.23
2019-01-04T09:50:55.437Z,1032.24
2019-01-04T09:51:55.411Z,1032.27
2019-01-04T09:52:55.401Z,1032.16
2019-01-04T09:53:55.413Z,1032.16
2019-01-04T09:54:55.391Z,1032.14
2019-01-04T09:55:55.394Z,1032.18
2019-01-04T09:56:55.368Z,1032.11
2019-01-04T09:57:55.347Z,1032.11
2019-01-04T09:59:04.219Z,1032.08
2019-01-04T09:59:55.342Z,1032.16
2019-01-04T10:00:55.340Z,1032.12
2019-01-04T10:01:55.346Z,1032.10
2019-01-04T10:02:55.359Z,1032.07
2019-01-04T10:03:55.283Z,1032.06
2019-01-04T10:04:55.299Z,1032.06
2019-01-04T10:05:55.293Z,1032.04
2019-01-04T10:06:55.280Z,1032.03
2019-01-04T10:07:58.369Z,1031.98
2019-01-04T10:08:55.350Z,1031.99
2019-01-04T10:09:55.290Z,1031.96
2019-01-04T10:10:55.304Z,1031.97
2019-01-04T10:11:55.334Z,1031.92
2019-01-04T10:12:55.285Z,1031.95
2019-01-04T10:13:55.205Z,1031.92
2019-01-04T10:14:55.277Z,1031.90
2019-01-04T10:15:55.218Z,1031.89
2019-01-04T10:16:55.210Z,1031.85
2019-01-04T10:17:55.152Z,1031.84
2019-01-04T10:18:55.171Z,1031.86
2019-01-04T10:19:55.219Z,1031.83
2019-01-04T10:20:55.163Z,1031.77
2019-01-04T10:21:55.108Z,1031.71
2019-01-04T10:22:55.113Z,1031.74
2019-01-04T10:23:55.181Z,1031.74
2019-01-04T10:24:55.117Z,1031.74
2019-01-04T10:25:55.125Z,1031.69
2019-01-04T10:26:55.063Z,1031.71
2019-01-04T10:27:55.038Z,1031.68
2019-01-04T10:28:55.089Z,1031.66
2019-01-04T10:29:55.146Z,1031.67
2019-01-04T10:30:55.060Z,1031.65
2019-01-04T10:31:55.044Z,1031.66
2019-01-04T10:32:54.992Z,1031.65
2019-01-04T10:33:55.023Z,1031.60
2019-01-04T10:34:55.031Z,1031.59
2019-01-04T10:35:54.986Z,1031.54
2019-01-04T10:36:55.092Z,1031.52
2019-01-04T10:37:54.986Z,1031.53
2019-01-04T10:38:54.968Z,1031.53
2019-01-04T10:39:54.982Z,1031.54
2019-01-04T10:40:55.009Z,1031.50
2019-01-04T10:41:54.910Z,1031.57
2019-01-04T10:42:54.928Z,1031.45
2019-01-04T10:43:54.906Z,1031.44
2019-01-04T10:44:54.943Z,1031.45
2019-01-04T10:45:54.993Z,1031.48
2019-01-04T10:46:54.844Z,1031.52
2019-01-04T10:47:54.852Z,1031.43
2019-01-04T10:48:55.015Z,1031.38
2019-01-04T10:49:54.818Z,1031.31
2019-01-04T10:50:54.876Z,1031.35
2019-01-04T10:51:54.831Z,1031.35
2019-01-04T10:52:54.805Z,1031.36
2019-01-04T10:53:54.865Z,1031.32
2019-01-04T10:54:54.790Z,1031.30
2019-01-04T10:55:54.846Z,1031.23
2019-01-04T10:56:54.763Z,1031.21
2019-01-04T10:57:54.842Z,1031.19
2019-01-04T10:58:54.852Z,1031.09
2019-01-04T10:59:54.751Z,1031.17
2019-01-04T11:00:54.990Z,1031.22
2019-01-04T11:01:54.680Z,1031.21
2019-01-04T11:02:54.704Z,1031.16
2019-01-04T11:03:54.738Z,1031.21
2019-01-04T11:04:54.718Z,1031.18
2019-01-04T11:05:54.795Z,1031.18
2019-01-04T11:06:54.703Z,1031.16
2019-01-04T11:07:54.644Z,1031.25
2019-01-04T11:08:54.648Z,1031.14
2019-01-04T11:09:54.605Z,1031.21
2019-01-04T11:10:54.640Z,1031.21
2019-01-04T11:11:54.794Z,1031.18
2019-01-04T11:12:54.685Z,1031.21
2019-01-04T11:13:54.601Z,1031.12
2019-01-04T11:14:54.577Z,1031.12
2019-01-04T11:15:54.594Z,1031.13
2019-01-04T11:16:54.580Z,1031.07
2019-01-04T11:17:54.533Z,1031.10
2019-01-04T11:18:54.579Z,1031.03
2019-01-04T11:19:54.570Z,1031.11
2019-01-04T11:20:54.560Z,1031.08
2019-01-04T11:21:54.470Z,1031.06
2019-01-04T11:22:54.475Z,1031.09
2019-01-04T11:23:54.418Z,1031.09
2019-01-04T11:24:54.442Z,1031.09
2019-01-04T11:25:54.396Z,1031.07
2019-01-04T11:26:54.407Z,1031.03
2019-01-04T11:27:54.370Z,1031.03
2019-01-04T11:28:54.363Z,1031.02
2019-01-04T11:29:54.359Z,1030.88
2019-01-04T11:30:54.336Z,1030.87
2019-01-04T11:31:54.327Z,1030.82
2019-01-04T11:32:54.336Z,1030.80
2019-01-04T11:33:54.341Z,1030.76
2019-01-04T11:34:54.309Z,1030.78
2019-01-04T11:35:54.287Z,1030.78
2019-01-04T11:36:54.277Z,1030.80
2019-01-04T11:37:54.287Z,1030.75
2019-01-04T11:38:54.261Z,1030.76
2019-01-04T11:39:54.265Z,1030.75
2019-01-04T11:40:54.257Z,1030.77
2019-01-04T11:41:54.224Z,1030.79
2019-01-04T11:42:54.238Z,1030.71
2019-01-04T11:43:54.199Z,1030.67
2019-01-04T11:44:54.203Z,1030.72
2019-01-04T11:45:54.175Z,1030.75
2019-01-04T11:46:54.169Z,1030.75
2019-01-04T11:47:54.186Z,1030.78
2019-01-04T11:48:54.173Z,1030.73
2019-01-04T11:49:54.170Z,1030.66
2019-01-04T11:50:54.157Z,1030.63
2019-01-04T11:51:54.160Z,1030.67
2019-01-04T11:52:54.122Z,1030.64
2019-01-04T11:53:54.163Z,1030.60
2019-01-04T11:56:37.589Z,1030.60
2019-01-04T11:57:37.470Z,1030.64
2019-01-04T11:58:37.483Z,1030.61
2019-01-04T11:59:37.455Z,1030.59
2019-01-04T12:00:37.441Z,1030.61
2019-01-04T12:01:37.456Z,1030.61
2019-01-04T12:02:37.427Z,1030.53
2019-01-04T12:03:37.447Z,1030.49
2019-01-04T12:04:37.425Z,1030.50
2019-01-04T12:05:37.390Z,1030.49
2019-01-04T12:06:37.382Z,1030.48